Latest Weather Observations for Sydney Airport

IDN60901

Issued at 7:41 pm EDT Thursday 19 January 2017 (issued every 10 minutes, with the page automatically refreshed every 10 minutes)

About weather observations | Map of Sydney area stations | Latest observations for Sydney area | Other Formats
Station Details ID: 066037 Name: SYDNEY AIRPORT AMO Lat: -33.95 Lon: 151.17 Height: 6.0 m
Data from the previous 72 hours. | See also: Recent months at Sydney Airport
Date/Time
EDT
Temp
°C
App
Temp
°C
Dew
Point
°C
Rel
Hum
%
Delta-T
°C
Wind Press
QNH
hPa
Press
MSL
hPa
Rain since
9am
mm
Dir  Spd
km/h
Gust
km/h
Spd
kts
Gust
kts
19/07:30pm 23.2 19.3 13.4 54 5.7 NE 26 32 14 17 1011.4 1011.4 0.0
19/07:00pm 23.3 19.0 13.3 53 5.8 NE 28 33 15 18 1011.4 1011.4 0.0
19/06:30pm 22.3 18.3 13.1 56 5.3 NE 26 33 14 18 1011.6 1011.6 0.0
19/06:00pm 22.8 19.2 13.1 54 5.6 NE 24 33 13 18 1011.7 1011.7 0.0
19/05:30pm 22.9 18.9 13.0 53 5.7 ENE 26 33 14 18 1012.0 1012.0 0.0
19/05:00pm 22.7 18.2 12.5 52 5.8 NE 28 35 15 19 1012.3 1012.3 0.0
19/04:30pm 22.8 18.9 12.2 51 6.0 ENE 24 35 13 19 1012.7 1012.7 0.0
19/04:00pm 22.7 19.2 12.1 51 6.0 ENE 22 32 12 17 1013.1 1013.1 0.0
19/03:30pm 23.1 19.6 12.2 50 6.2 ENE 22 32 12 17 1013.5 1013.5 0.0
19/03:00pm 22.9 19.8 12.1 50 6.1 ENE 20 28 11 15 1013.7 1013.7 0.0
19/02:30pm 23.8 20.7 12.2 48 6.6 NE 20 30 11 16 1013.8 1013.8 0.0
19/02:00pm 22.0 19.0 12.5 54 5.4 ENE 20 30 11 16 1014.1 1014.1 0.0
19/01:30pm 22.6 19.2 12.4 52 5.8 ENE 22 32 12 17 1014.3 1014.3 0.0
19/01:00pm 22.0 19.2 12.7 55 5.3 E 19 28 10 15 1014.7 1014.7 0.0
19/12:30pm 22.4 19.1 12.8 54 5.5 E 22 30 12 16 1014.9 1014.9 0.0
19/12:00pm 22.4 19.7 13.4 56 5.2 E 20 30 11 16 1015.0 1015.0 0.0
19/11:30am 21.5 19.8 13.5 60 4.6 E 15 24 8 13 1015.3 1015.3 0.0
19/11:00am 20.7 19.8 14.9 69 3.4 ESE 13 22 7 12 1015.6 1015.6 0.0
19/10:30am 20.1 18.6 15.4 74 2.8 E 17 24 9 13 1015.6 1015.6 0.0
19/10:00am 20.3 18.1 15.0 71 3.1 E 20 28 11 15 1015.6 1015.6 0.0
19/09:30am 21.0 18.8 14.5 66 3.8 E 19 26 10 14 1015.6 1015.6 0.0
19/09:00am 21.4 18.8 13.8 62 4.4 E 20 26 11 14 1015.4 1015.4 0.0
19/08:30am 21.5 18.9 13.9 62 4.4 ESE 20 26 11 14 1015.2 1015.2 0.0
19/08:00am 21.4 18.7 13.4 60 4.6 E 20 28 11 15 1015.2 1015.2 0.0
19/07:30am 21.8 21.2 12.2 54 5.4 SSE 7 11 4 6 1014.8 1014.8 0.0
19/07:00am 21.5 20.6 12.5 56 5.1 S 9 11 5 6 1014.5 1014.5 0.0
19/06:30am 21.4 19.4 12.8 58 4.9 S 15 19 8 10 1014.4 1014.4 0.0
19/06:00am 21.3 20.5 13.9 62 4.3 SSE 11 15 6 8 1014.2 1014.2 0.0
19/05:30am 21.3 19.6 13.7 62 4.4 S 15 19 8 10 1014.1 1014.1 0.0
19/05:00am 21.5 19.2 13.1 58 4.8 S 17 20 9 11 1014.0 1014.0 0.0
19/04:30am 21.7 19.4 13.1 58 4.9 S 17 20 9 11 1013.9 1013.9 0.0
19/04:00am 21.6 18.6 12.4 55 5.2 S 20 30 11 16 1013.8 1013.8 0.0
19/03:30am 21.5 18.4 13.5 60 4.6 S 22 30 12 16 1014.1 1014.1 0.0
19/03:00am 21.6 18.1 13.4 59 4.7 SSE 24 30 13 16 1014.3 1014.3 0.0
19/02:30am 21.5 17.4 12.7 57 5.0 S 26 33 14 18 1014.5 1014.5 0.0
19/02:00am 21.4 16.9 11.5 53 5.5 SSE 26 32 14 17 1014.7 1014.7 0.0
19/01:30am 21.5 16.5 12.1 55 5.3 SSE 30 39 16 21 1015.1 1015.1 0.0
19/01:00am 21.6 16.8 11.7 53 5.5 SSE 28 39 15 21 1015.4 1015.4 0.0
19/12:30am 21.4 18.0 13.6 61 4.5 SSE 24 32 13 17 1015.7 1015.7 0.0
19/12:00am 20.9 16.7 13.4 62 4.3 SSE 28 33 15 18 1016.0 1016.0 0.0
 
Date/Time
EDT
Temp
°C
App
Temp
°C
Dew
Point
°C
Rel
Hum
%
Delta-T
°C
Wind Press
QNH
hPa
Press
MSL
hPa
Rain since
9am
mm
Dir  Spd
km/h
Gust
km/h
Spd
kts
Gust
kts
18/11:30pm 20.2 16.5 15.1 72 3.0 SE 28 39 15 21 1016.0 1016.0 0.0
18/11:00pm 20.2 17.0 16.4 79 2.3 SSE 28 35 15 19 1016.2 1016.2 0.0
18/10:30pm 21.5 18.3 16.2 72 3.2 S 28 39 15 21 1015.9 1015.9 0.0
18/10:12pm 22.1 19.0 16.5 70 3.4 S 28 46 15 25 1015.7 1015.7 0.0
18/10:00pm 22.0 19.4 16.9 73 3.1 S 26 32 14 17 1015.4 1015.4 0.0
18/09:30pm 22.2 19.6 16.8 71 3.3 SSE 26 32 14 17 1014.8 1014.8 0.0
18/09:00pm 22.4 19.0 16.8 70 3.4 S 30 37 16 20 1014.2 1014.2 0.0
18/08:30pm 22.4 18.7 17.5 74 3.0 S 33 43 18 23 1013.6 1013.6 0.0
18/08:00pm 22.7 18.9 18.1 75 2.9 S 35 44 19 24 1012.9 1012.9 0.0
18/07:30pm 22.8 18.2 18.0 74 3.0 S 39 50 21 27 1011.9 1011.9 0.0
18/07:00pm 22.8 18.0 17.6 72 3.2 SSE 39 50 21 27 1011.3 1011.3 0.0
18/06:30pm 23.2 18.3 18.1 73 3.2 SSE 41 52 22 28 1010.5 1010.5 0.0
18/06:00pm 24.0 19.2 18.5 71 3.5 SSE 41 56 22 30 1009.7 1009.7 0.0
18/05:30pm 24.0 19.3 18.6 72 3.4 SSE 41 52 22 28 1009.0 1009.0 0.0
18/05:00pm 23.8 18.9 19.4 76 2.8 S 44 57 24 31 1008.3 1008.3 0.0
18/04:30pm 23.9 19.8 20.0 79 2.5 S 41 52 22 28 1008.4 1008.4 0.0
18/04:00pm 24.7 20.0 19.9 74 3.1 S 44 57 24 31 1007.5 1007.5 0.0
18/03:30pm 25.7 23.2 20.2 71 3.6 S 33 43 18 23 1007.0 1007.0 0.0
18/03:00pm 25.1 22.3 20.2 74 3.2 S 35 43 19 23 1006.7 1006.7 0.0
18/02:30pm 25.4 22.9 20.2 73 3.4 S 33 41 18 22 1006.9 1006.9 0.0
18/02:00pm 25.7 23.0 19.7 69 3.9 S 33 43 18 23 1006.3 1006.3 0.0
18/01:30pm 26.0 23.1 19.2 66 4.4 S 33 39 18 21 1006.1 1006.1 0.0
18/01:00pm 26.2 23.4 18.3 61 5.0 S 30 35 16 19 1006.1 1006.1 0.0
18/12:30pm 27.4 25.1 17.6 55 6.2 S 26 33 14 18 1006.1 1006.1 0.0
18/12:00pm 26.2 23.7 18.0 60 5.2 S 28 35 15 19 1006.0 1006.0 0.0
18/11:30am 26.0 22.8 18.1 61 5.0 S 32 39 17 21 1006.0 1006.0 0.0
18/11:00am 26.3 23.0 17.9 60 5.3 SSE 32 41 17 22 1006.2 1006.2 0.0
18/10:30am 25.3 22.6 19.7 71 3.6 S 33 41 18 22 1006.3 1006.3 0.0
18/10:00am 25.8 21.4 20.1 71 3.7 S 43 52 23 28 1006.0 1006.0 0.0
18/09:30am 26.1 21.9 21.6 76 3.0 S 46 61 25 33 1005.8 1005.8 0.0
18/09:17am 30.9 28.5 19.1 49 7.7 SW 30 56 16 30 1005.9 1005.9 0.0
18/09:00am 37.2 33.0 15.6 27 13.7 WNW 32 41 17 22 1005.4 1005.4 0.0
18/08:30am 36.5 33.0 14.5 27 13.7 NW 26 33 14 18 1005.4 1005.4 0.0
18/08:00am 35.3 32.3 14.7 29 12.8 NW 24 32 13 17 1005.2 1005.2 0.0
18/07:30am 34.4 30.9 14.5 30 12.3 NNW 26 32 14 17 1004.7 1004.7 0.0
18/07:00am 33.6 30.4 14.2 31 11.9 NNW 24 30 13 16 1004.6 1004.6 0.0
18/06:30am 32.7 30.7 14.9 34 11.0 NW 19 24 10 13 1004.3 1004.3 0.0
18/06:00am 32.1 30.1 14.9 35 10.6 NW 19 22 10 12 1004.0 1004.0 0.0
18/05:30am 31.0 30.1 16.8 42 9.0 NW 17 19 9 10 1003.6 1003.6 0.0
18/05:00am 29.8 29.3 17.7 48 7.7 NW 17 26 9 14 1003.6 1003.6 0.4
18/04:30am 29.0 29.4 19.0 54 6.5 NW 15 17 8 9 1003.4 1003.4 0.4
18/04:00am 29.4 30.5 18.9 53 6.8 NNW 11 13 6 7 1003.4 1003.4 0.4
18/03:30am 29.1 31.2 19.3 55 6.4 NW 7 13 4 7 1003.5 1003.5 0.4
18/03:00am 29.6 31.5 19.0 53 6.9 NNW 7 9 4 5 1003.7 1003.7 0.4
18/02:30am 29.5 31.6 19.4 54 6.6 N 7 9 4 5 1004.1 1004.1 0.4
18/02:00am 26.5 30.6 20.7 70 3.8 CALM 0 0 0 0 1004.4 1004.4 0.4
18/01:30am 26.7 30.8 20.8 70 3.9 CALM 0 0 0 0 1004.7 1004.7 0.4
18/01:00am 26.9 31.1 20.9 69 4.0 CALM 0 4 0 2 1005.2 1005.2 0.4
18/12:30am 27.1 30.1 20.9 69 4.1 NW 6 7 3 4 1005.5 1005.5 0.4
18/12:00am 28.8 31.4 20.1 59 5.7 N 6 7 3 4 1005.9 1005.9 0.4
 
Date/Time
EDT
Temp
°C
App
Temp
°C
Dew
Point
°C
Rel
Hum
%
Delta-T
°C
Wind Press
QNH
hPa
Press
MSL
hPa
Rain since
9am
mm
Dir  Spd
km/h
Gust
km/h
Spd
kts
Gust
kts
17/11:30pm 28.8 31.1 19.8 58 5.9 NNE 7 9 4 5 1006.1 1006.1 0.4
17/11:00pm 28.2 28.2 19.8 60 5.5 NE 19 24 10 13 1006.4 1006.4 0.4
17/10:30pm 28.5 27.2 19.8 59 5.7 ENE 26 30 14 16 1006.8 1006.8 0.4
17/10:00pm 30.9 29.5 18.7 48 7.9 E 24 26 13 14 1007.4 1007.4 0.4
17/09:30pm 32.1 32.7 17.8 42 9.2 ESE 11 19 6 10 1007.6 1007.6 0.4
17/09:16pm 32.2 32.3 18.3 43 9.0 S 15 28 8 15 1007.7 1007.7 0.4
17/09:00pm 34.7 32.4 14.7 30 12.4 ENE 20 41 11 22 1007.3 1007.3 0.4
17/08:30pm 32.5 29.3 18.5 43 9.1 NNE 33 39 18 21 1006.6 1006.6 0.4
17/08:00pm 32.2 28.1 18.3 43 9.0 NNE 37 48 20 26 1006.3 1006.3 0.4
17/07:37pm 32.5 28.2 17.9 41 9.4 NNE 37 57 20 31 1006.2 1006.2 0.4
17/07:30pm 33.0 29.2 18.0 41 9.7 NNE 35 44 19 24 1006.1 1006.1 0.4
17/07:00pm 33.5 29.6 17.9 39 10.1 NNE 35 46 19 25 1005.9 1005.9 0.4
17/06:30pm 34.4 29.7 17.7 37 10.8 NNE 39 46 21 25 1005.7 1005.7 0.4
17/06:00pm 35.0 31.0 17.7 36 11.2 NNE 35 43 19 23 1005.6 1005.6 0.4
17/05:30pm 36.2 32.3 17.8 33 12.0 NE 35 44 19 24 1005.8 1005.8 0.4
17/05:00pm 36.4 31.3 17.8 33 12.1 NNE 41 48 22 26 1006.1 1006.1 0.0
17/04:30pm 35.5 30.6 18.2 36 11.3 NNE 41 48 22 26 1006.4 1006.4 0.0
17/04:00pm 34.3 30.1 18.9 40 10.1 NNE 39 52 21 28 1007.0 1007.0 0.4
17/03:30pm 33.1 29.6 18.7 42 9.4 NNE 35 46 19 25 1007.4 1007.4 0.4
17/03:00pm 35.2 32.7 18.8 38 10.8 NE 30 33 16 18 1007.6 1007.6 0.0
17/02:30pm 35.5 32.9 18.6 37 11.1 NE 30 35 16 19 1008.1 1008.1 0.4
17/02:00pm 35.6 34.2 18.7 37 11.1 NE 24 28 13 15 1008.6 1008.6 0.4
17/01:30pm 36.0 35.1 18.1 34 11.7 NE 20 26 11 14 1009.1 1009.1 0.4
17/01:00pm 35.8 34.7 17.2 33 12.0 NE 19 24 10 13 1009.8 1009.8 0.0
17/12:30pm 34.9 33.9 17.6 35 11.2 NE 19 24 10 13 1010.4 1010.4 0.0
17/12:00pm 34.3 34.6 17.1 36 11.0 NNE 11 17 6 9 1010.9 1010.9 0.0
17/11:30am 33.3 33.7 18.2 40 9.8 NNE 13 17 7 9 1011.3 - 0.4
17/11:00am 32.7 34.2 18.0 41 9.5 N 7 9 4 5 1011.9 1011.9 0.0
17/10:30am 32.9 32.2 16.4 37 10.4 N 15 22 8 12 1012.3 1012.3 0.2
17/10:00am 30.3 30.4 16.6 43 8.6 NNW 11 22 6 12 1012.6 1012.6 0.0
17/09:30am 28.5 28.7 17.6 51 6.9 WNW 13 17 7 9 1013.0 1013.0 0.0
17/09:00am 27.4 28.0 18.5 58 5.7 NW 13 17 7 9 1013.4 1013.4 0.0
17/08:30am 25.8 26.1 18.7 65 4.5 NW 15 19 8 10 1013.8 1013.8 0.0
17/08:00am 24.5 25.2 18.8 70 3.6 NW 13 15 7 8 1013.9 1013.9 0.0
17/07:30am 24.1 25.1 18.7 72 3.4 NW 11 15 6 8 1013.8 1013.8 0.0
17/07:00am 23.0 23.7 18.9 78 2.6 N 13 15 7 8 1013.7 1013.7 0.0
17/06:30am 22.8 24.1 19.2 80 2.3 N 11 13 6 7 1013.4 1013.4 0.0
17/06:00am 22.5 23.5 19.4 82 2.0 NW 13 15 7 8 1013.5 1013.5 0.0
17/05:30am 22.3 24.1 19.5 84 1.8 NNE 9 13 5 7 1013.0 1013.0 0.0
17/05:00am 21.5 23.7 19.6 89 1.2 ENE 7 9 4 5 1012.9 1012.9 0.0
17/04:30am 21.8 23.6 19.6 87 1.4 NNE 9 11 5 6 1012.8 1012.8 0.0
17/04:00am 21.7 23.5 19.5 87 1.4 NNE 9 11 5 6 1012.9 1012.9 0.0
17/03:30am 21.4 23.6 19.7 90 1.1 NE 7 9 4 5 1013.2 1013.2 0.0
17/03:00am 21.6 23.5 19.7 89 1.2 NE 9 11 5 6 1013.4 1013.4 0.0
17/02:30am 21.8 23.6 19.6 87 1.4 NE 9 11 5 6 1013.6 1013.6 0.0
17/02:00am 21.8 22.8 19.4 86 1.5 ENE 13 13 7 7 1013.9 1013.9 0.0
17/01:30am 23.2 24.9 19.3 79 2.5 NE 9 13 5 7 1014.2 1014.2 0.0
17/01:00am 22.7 24.4 19.4 81 2.1 NNE 9 11 5 6 1014.5 1014.5 0.0
17/12:30am 23.5 23.7 19.3 77 2.7 NNE 17 20 9 11 1014.7 1014.7 0.0
17/12:00am 23.5 22.3 19.3 77 2.7 NNE 24 35 13 19 1014.9 1014.9 0.0
 
Date/Time
EDT
Temp
°C
App
Temp
°C
Dew
Point
°C
Rel
Hum
%
Delta-T
°C
Wind Press
QNH
hPa
Press
MSL
hPa
Rain since
9am
mm
Dir  Spd
km/h
Gust
km/h
Spd
kts
Gust
kts
16/11:30pm 23.6 22.4 19.2 76 2.8 NNE 24 32 13 17 1015.0 1015.0 0.0
16/11:00pm 23.7 22.0 19.0 75 3.0 NNE 26 33 14 18 1015.1 1015.1 0.0
16/10:30pm 23.9 22.1 18.7 72 3.3 NNE 26 35 14 19 1015.3 1015.3 0.0
16/10:00pm 24.0 21.3 18.4 71 3.5 NNE 30 39 16 21 1015.1 1015.1 0.0
16/09:30pm 23.8 21.1 18.4 72 3.4 NNE 30 41 16 22 1014.8 1014.8 0.0
16/09:00pm 24.3 20.6 18.3 69 3.8 NNE 35 50 19 27 1014.5 1014.5 0.0
16/08:30pm 24.6 20.4 18.1 67 4.1 NNE 37 54 20 29 1014.2 1014.2 0.0
16/08:26pm 24.5 20.7 18.1 67 4.0 NNE 35 54 19 29 1014.2 1014.2 0.0
16/08:00pm 24.8 20.3 18.3 67 4.1 NE 39 50 21 27 1013.9 1013.9 0.0

Latest Capital City Observations: Canberra | Sydney | Melbourne | Brisbane | Adelaide | Perth | Hobart | Darwin

Other Formats:

Comma delimited format used in spreadsheet applications
http://www.bom.gov.au/fwo/IDN60901/IDN60901.94767.axf

JavaScript Object Notation format (JSON) in row-major order
http://www.bom.gov.au/fwo/IDN60901/IDN60901.94767.json